Time;durP1;ratioP1;P1;durP2;ratioP2;P2;SDS_P1;SDS_P2;PMS_P1;PMS_P2;Temp;Humidity;BMP_temperature;BMP_pressure;BME280_temperature;BME280_humidity;BME280_pressure;Samples;Min_cycle;Max_cycle;Signal;HPM_P1;HPM_P2
2022/09/27 00:00:03;;;;;;;1.50;0.50;;;11.10;99.90;;;;;;4992651;28;20117;-74
2022/09/27 00:02:29;;;;;;;1.20;0.60;;;11.10;99.90;;;;;;4993264;28;20109;-74
2022/09/27 00:04:55;;;;;;;2.13;0.50;;;11.20;99.90;;;;;;4992892;28;20123;-74
2022/09/27 00:07:20;;;;;;;1.20;0.60;;;11.20;99.90;;;;;;4991463;28;20030;-75
2022/09/27 00:09:46;;;;;;;2.10;0.50;;;11.20;99.90;;;;;;4992000;28;20037;-74
2022/09/27 00:12:12;;;;;;;1.45;0.70;;;11.20;99.90;;;;;;4992500;28;20056;-75
2022/09/27 00:14:38;;;;;;;0.90;0.50;;;11.20;99.90;;;;;;4991860;28;20463;-75
2022/09/27 00:17:04;;;;;;;0.90;0.52;;;11.20;99.90;;;;;;4992578;28;20037;-75
2022/09/27 00:19:29;;;;;;;0.70;0.57;;;11.20;99.90;;;;;;4993012;28;20029;-74
2022/09/27 00:21:55;;;;;;;2.15;0.77;;;11.20;99.90;;;;;;4992747;28;20388;-75
2022/09/27 00:24:22;;;;;;;0.90;0.57;;;11.20;99.90;;;;;;4991227;28;20031;-74
2022/09/27 00:26:48;;;;;;;0.98;0.52;;;11.20;99.90;;;;;;4991931;28;20053;-74
2022/09/27 00:29:16;;;;;;;0.57;0.40;;;11.20;99.90;;;;;;4990888;28;20092;-75
2022/09/27 00:31:42;;;;;;;2.38;0.45;;;11.20;99.90;;;;;;4991624;28;20037;-74
2022/09/27 00:34:16;;;;;;;1.80;0.60;;;11.20;99.90;;;;;;4996282;28;20479;-75
2022/09/27 00:36:42;;;;;;;1.65;0.60;;;11.20;99.90;;;;;;4995458;28;20030;-74
2022/09/27 00:39:08;;;;;;;1.05;0.60;;;11.20;99.90;;;;;;4994840;28;20026;-75
2022/09/27 00:41:35;;;;;;;3.00;0.50;;;11.20;99.90;;;;;;4995338;28;20468;-74
2022/09/27 00:44:24;;;;;;;2.72;0.70;;;11.20;99.90;;;;;;4994883;28;20479;-75
2022/09/27 00:46:59;;;;;;;1.45;0.70;;;11.20;99.90;;;;;;4990707;28;20042;-74
2022/09/27 00:49:56;;;;;;;2.78;0.70;;;11.20;99.90;;;;;;4978625;28;20058;-75
2022/09/27 00:52:47;;;;;;;1.42;0.55;;;11.20;99.90;;;;;;4977331;28;20038;-75
2022/09/27 00:55:24;;;;;;;1.40;0.65;;;11.20;99.90;;;;;;4977970;28;20125;-75
2022/09/27 00:57:50;;;;;;;1.23;0.65;;;11.30;99.90;;;;;;4994990;28;20022;-75
2022/09/27 01:00:16;;;;;;;1.23;0.70;;;11.30;99.90;;;;;;4994454;28;20102;-75
2022/09/27 01:02:51;;;;;;;1.35;0.75;;;11.30;99.90;;;;;;4994976;28;20140;-74
2022/09/27 01:05:20;;;;;;;1.65;0.70;;;11.30;99.90;;;;;;4994470;28;20043;-75
2022/09/27 01:07:45;;;;;;;1.48;0.60;;;11.40;99.90;;;;;;4994876;28;20404;-74
2022/09/27 01:10:13;;;;;;;2.15;0.70;;;11.40;99.90;;;;;;4995617;28;20116;-75
2022/09/27 01:13:03;;;;;;;1.25;0.60;;;11.40;99.90;;;;;;4994467;28;20027;-74
2022/09/27 01:15:40;;;;;;;1.75;0.40;;;11.40;99.90;;;;;;4996081;28;20019;-75
2022/09/27 01:18:46;;;;;;;2.60;0.43;;;11.40;99.90;;;;;;4978082;28;20042;-75
2022/09/27 01:21:35;;;;;;;1.23;0.50;;;11.40;99.90;;;;;;4994168;28;20046;-75
2022/09/27 01:24:20;;;;;;;1.30;0.60;;;11.40;99.90;;;;;;4975939;28;20045;-78
2022/09/27 01:27:07;;;;;;;1.00;0.50;;;11.40;99.90;;;;;;4978458;28;20026;-74
2022/09/27 01:30:01;;;;;;;2.15;0.50;;;11.40;99.90;;;;;;4994619;28;20491;-75
2022/09/27 01:33:00;;;;;;;2.30;0.40;;;11.40;99.90;;;;;;4994374;28;20035;-75
2022/09/27 01:35:59;;;;;;;0.52;0.30;;;11.30;99.90;;;;;;4979030;28;20113;-75
2022/09/27 01:38:39;;;;;;;2.40;0.40;;;11.40;99.90;;;;;;4995163;28;20045;-74
2022/09/27 01:41:20;;;;;;;1.23;0.30;;;11.40;99.90;;;;;;4994996;28;20105;-75
2022/09/27 01:43:55;;;;;;;2.15;0.40;;;11.30;99.90;;;;;;4995595;28;20495;-74
2022/09/27 01:46:41;;;;;;;1.95;0.40;;;11.30;99.90;;;;;;4977508;28;20491;-74
2022/09/27 01:49:15;;;;;;;1.73;0.40;;;11.30;99.90;;;;;;4994739;28;20061;-75
2022/09/27 01:51:57;;;;;;;2.35;0.50;;;11.30;99.90;;;;;;4994117;28;20125;-74
2022/09/27 01:54:46;;;;;;;1.95;0.47;;;11.30;99.90;;;;;;4993684;28;20416;-75
2022/09/27 01:57:18;;;;;;;1.27;0.40;;;11.30;99.90;;;;;;4976729;28;20129;-75
2022/09/27 01:59:55;;;;;;;0.73;0.30;;;11.30;99.90;;;;;;4995044;28;20042;-74
2022/09/27 02:02:25;;;;;;;1.25;0.40;;;11.30;99.90;;;;;;4993407;28;20038;-74
2022/09/27 02:04:56;;;;;;;2.58;0.60;;;11.30;99.90;;;;;;4994017;28;20080;-74
2022/09/27 02:07:28;;;;;;;1.35;0.52;;;11.30;99.90;;;;;;4993425;28;20031;-75
2022/09/27 02:10:03;;;;;;;1.80;0.50;;;11.30;99.90;;;;;;4993755;28;20042;-74
2022/09/27 02:12:36;;;;;;;3.53;1.05;;;11.30;99.90;;;;;;4993929;28;20026;-75
2022/09/27 02:15:12;;;;;;;2.03;0.60;;;11.30;99.90;;;;;;4993827;28;20383;-74
2022/09/27 02:17:44;;;;;;;2.10;0.65;;;11.30;99.90;;;;;;4993810;28;20030;-75
2022/09/27 02:20:34;;;;;;;2.38;0.55;;;11.30;99.90;;;;;;4994258;28;20072;-75
2022/09/27 02:23:13;;;;;;;2.58;0.70;;;11.30;99.90;;;;;;4993483;28;20383;-74
2022/09/27 02:25:49;;;;;;;3.72;0.57;;;11.20;99.90;;;;;;4994543;28;20114;-74
2022/09/27 02:28:28;;;;;;;2.50;0.70;;;11.20;99.90;;;;;;4994000;28;20038;-75
2022/09/27 02:30:54;;;;;;;1.65;0.60;;;11.20;99.90;;;;;;4994441;28;20044;-75
2022/09/27 02:33:25;;;;;;;3.17;0.75;;;11.20;99.90;;;;;;4992825;28;20460;-75
2022/09/27 02:35:51;;;;;;;2.63;1.33;;;11.20;99.90;;;;;;4993406;28;20038;-74
2022/09/27 02:38:16;;;;;;;5.15;0.98;;;11.20;99.90;;;;;;4992721;28;20031;-74
2022/09/27 02:40:45;;;;;;;2.55;0.80;;;11.30;99.90;;;;;;4993114;28;20360;-75
2022/09/27 02:43:13;;;;;;;4.22;0.80;;;11.30;99.90;;;;;;4993856;28;20030;-75
2022/09/27 02:46:06;;;;;;;3.90;1.02;;;11.30;99.90;;;;;;4994408;28;20022;-75
2022/09/27 02:48:43;;;;;;;3.15;0.70;;;11.20;99.90;;;;;;4976711;28;20046;-74
2022/09/27 02:51:22;;;;;;;3.97;1.00;;;11.20;99.90;;;;;;4976381;28;20085;-75
2022/09/27 02:54:36;;;;;;;2.75;0.95;;;11.20;99.90;;;;;;4977018;28;20026;-74
2022/09/27 02:57:21;;;;;;;1.92;0.90;;;11.20;99.90;;;;;;4989023;28;20065;-74
2022/09/27 03:00:00;;;;;;;5.38;1.30;;;11.20;99.90;;;;;;4986599;28;20046;-74
2022/09/27 03:02:36;;;;;;;2.78;0.98;;;11.20;99.90;;;;;;4976227;28;20056;-74
2022/09/27 03:05:11;;;;;;;2.65;1.15;;;11.10;99.90;;;;;;4992782;28;20084;-71
2022/09/27 03:07:38;;;;;;;5.22;1.38;;;11.20;99.90;;;;;;4993835;28;20022;-72
2022/09/27 03:10:06;;;;;;;5.93;1.40;;;11.20;99.90;;;;;;4992816;28;20379;-72
2022/09/27 03:12:32;;;;;;;5.50;1.35;;;11.20;99.90;;;;;;4991767;28;20030;-72
2022/09/27 03:14:59;;;;;;;5.88;1.40;;;11.10;99.90;;;;;;4992532;28;20125;-72
2022/09/27 03:17:25;;;;;;;13.88;2.15;;;11.20;99.90;;;;;;4991744;28;20069;-72
2022/09/27 03:19:52;;;;;;;5.43;1.75;;;11.20;99.90;;;;;;4992426;28;20133;-72
2022/09/27 03:22:18;;;;;;;5.85;1.35;;;11.20;99.90;;;;;;4993142;28;20022;-72
2022/09/27 03:24:44;;;;;;;6.63;1.50;;;11.20;99.90;;;;;;4992453;28;20361;-72
2022/09/27 03:27:10;;;;;;;3.58;1.10;;;11.20;99.90;;;;;;4991958;28;20026;-75
2022/09/27 03:29:36;;;;;;;4.60;1.58;;;11.20;99.90;;;;;;4992364;28;20476;-74
2022/09/27 03:32:03;;;;;;;3.33;1.55;;;11.20;99.90;;;;;;4992279;28;20173;-74
2022/09/27 03:34:29;;;;;;;3.05;1.10;;;11.20;99.90;;;;;;4991824;28;20372;-74
2022/09/27 03:36:54;;;;;;;6.47;1.75;;;11.20;99.90;;;;;;4993498;28;20069;-75
2022/09/27 03:39:20;;;;;;;4.75;1.70;;;11.20;99.90;;;;;;4991628;28;20030;-74
2022/09/27 03:41:46;;;;;;;7.88;1.50;;;11.20;99.90;;;;;;4992250;28;20034;-74
2022/09/27 03:44:11;;;;;;;4.88;1.65;;;11.10;99.90;;;;;;4991786;28;20383;-75
2022/09/27 03:46:37;;;;;;;7.28;1.38;;;11.10;99.90;;;;;;4992061;28;20387;-75
2022/09/27 03:49:03;;;;;;;6.47;1.50;;;11.10;99.90;;;;;;4991843;28;20046;-74
2022/09/27 03:51:28;;;;;;;9.75;1.50;;;11.10;99.90;;;;;;4991599;28;20026;-74
2022/09/27 03:53:54;;;;;;;6.97;1.55;;;11.10;99.90;;;;;;4992071;28;20058;-74
2022/09/27 03:56:20;;;;;;;6.22;1.60;;;11.10;99.90;;;;;;4991574;28;20028;-75
2022/09/27 03:58:45;;;;;;;8.27;1.67;;;11.10;99.90;;;;;;4993069;28;20038;-74
2022/09/27 04:01:11;;;;;;;6.50;1.70;;;11.10;99.90;;;;;;4991473;28;20038;-76
2022/09/27 04:03:37;;;;;;;5.35;1.58;;;11.10;99.90;;;;;;4992208;28;20530;-74
2022/09/27 04:06:03;;;;;;;7.45;1.55;;;11.10;99.90;;;;;;4993165;28;20483;-74
2022/09/27 04:08:29;;;;;;;8.52;1.38;;;11.10;99.90;;;;;;4996209;28;20035;-75
2022/09/27 04:10:55;;;;;;;6.10;1.48;;;11.10;99.90;;;;;;4997431;28;20041;-74
2022/09/27 04:13:21;;;;;;;5.75;1.27;;;11.10;99.90;;;;;;4996718;28;20070;-75
2022/09/27 04:15:46;;;;;;;4.70;1.60;;;11.10;99.90;;;;;;4995967;28;20484;-75
2022/09/27 04:18:12;;;;;;;6.32;2.05;;;11.10;99.90;;;;;;4995357;28;20467;-75
2022/09/27 04:20:38;;;;;;;5.72;1.33;;;11.00;99.90;;;;;;4995772;28;20038;-75
2022/09/27 04:23:04;;;;;;;8.45;1.58;;;11.00;99.90;;;;;;4995771;28;20030;-75
2022/09/27 04:25:31;;;;;;;5.05;1.20;;;11.00;99.90;;;;;;4996473;28;20076;-74
2022/09/27 04:27:57;;;;;;;4.80;1.13;;;11.00;99.90;;;;;;4996871;28;20448;-75
2022/09/27 04:30:25;;;;;;;7.38;1.40;;;11.00;99.90;;;;;;4995106;28;20089;-75
2022/09/27 04:32:51;;;;;;;3.92;0.98;;;11.00;99.90;;;;;;4995565;28;20112;-74
2022/09/27 04:38:01;;;;;;;4.93;1.27;;;11.00;99.90;;;;;;4996564;28;20037;-74
2022/09/27 04:40:27;;;;;;;5.70;1.25;;;11.00;99.90;;;;;;4994524;28;20031;-75
2022/09/27 04:42:52;;;;;;;3.30;1.10;;;11.00;99.90;;;;;;4995050;28;20046;-74
2022/09/27 04:45:18;;;;;;;5.05;1.20;;;11.10;99.90;;;;;;4994930;28;20026;-75
2022/09/27 04:47:45;;;;;;;4.57;0.80;;;11.00;99.90;;;;;;4995441;28;20054;-75
2022/09/27 04:50:12;;;;;;;4.55;1.23;;;11.00;99.90;;;;;;4996520;28;20054;-74
2022/09/27 04:52:37;;;;;;;3.03;0.82;;;11.00;99.90;;;;;;4994395;28;20117;-74
2022/09/27 04:55:04;;;;;;;7.60;1.17;;;11.10;99.90;;;;;;4995180;28;20069;-74
2022/09/27 04:57:30;;;;;;;7.55;1.20;;;11.00;99.90;;;;;;4995887;28;20026;-75
2022/09/27 04:59:59;;;;;;;3.45;1.17;;;11.00;99.90;;;;;;4996409;28;20041;-74
2022/09/27 05:02:25;;;;;;;4.43;0.98;;;11.00;99.90;;;;;;4995801;28;20034;-75
2022/09/27 05:04:52;;;;;;;4.97;1.55;;;11.00;99.90;;;;;;4996144;28;20034;-74
2022/09/27 05:07:17;;;;;;;4.07;1.10;;;11.00;99.90;;;;;;4994418;28;20038;-75
2022/09/27 05:09:44;;;;;;;3.63;1.40;;;11.00;99.90;;;;;;4994839;28;20030;-74
2022/09/27 05:12:10;;;;;;;10.13;1.70;;;11.00;99.90;;;;;;4994895;28;20096;-75
2022/09/27 05:14:36;;;;;;;5.72;1.50;;;11.00;99.90;;;;;;4994288;28;20467;-74
2022/09/27 05:17:02;;;;;;;5.30;1.40;;;11.00;99.90;;;;;;4994805;28;20037;-74
2022/09/27 05:19:27;;;;;;;3.25;1.00;;;11.00;99.90;;;;;;4993505;28;20030;-74
2022/09/27 05:21:53;;;;;;;7.35;1.10;;;11.00;99.90;;;;;;4994702;28;20080;-75
2022/09/27 05:24:20;;;;;;;7.13;3.20;;;11.00;99.90;;;;;;4994282;28;20117;-75
2022/09/27 05:26:46;;;;;;;3.58;1.13;;;11.00;99.90;;;;;;4994632;28;20389;-75
2022/09/27 05:29:12;;;;;;;2.22;0.90;;;11.00;99.90;;;;;;4978304;28;20031;-75
2022/09/27 05:31:37;;;;;;;8.30;1.00;;;11.00;99.90;;;;;;4993971;28;20037;-74
2022/09/27 05:34:03;;;;;;;3.22;0.90;;;11.00;99.90;;;;;;4994435;28;20031;-74
2022/09/27 05:36:29;;;;;;;2.30;0.98;;;11.00;99.90;;;;;;4993876;28;20037;-75
2022/09/27 05:38:55;;;;;;;2.67;1.02;;;11.00;99.90;;;;;;4994395;28;20030;-74
2022/09/27 05:41:20;;;;;;;1.88;0.88;;;11.00;99.90;;;;;;4993758;28;20034;-75
2022/09/27 05:43:46;;;;;;;1.77;0.70;;;11.00;99.90;;;;;;4994318;28;20035;-75
2022/09/27 05:46:12;;;;;;;3.65;0.85;;;11.00;99.90;;;;;;4995553;28;20037;-74
2022/09/27 05:48:37;;;;;;;4.03;0.77;;;11.00;99.90;;;;;;4993463;28;20100;-75
2022/09/27 05:51:03;;;;;;;3.55;1.00;;;11.10;99.90;;;;;;4995370;28;20030;-74
2022/09/27 05:53:30;;;;;;;4.30;0.93;;;11.00;99.90;;;;;;4994626;28;20034;-75
2022/09/27 05:56:00;;;;;;;3.58;0.98;;;11.00;99.90;;;;;;4993996;28;20026;-74
2022/09/27 05:58:27;;;;;;;4.40;0.95;;;11.00;99.90;;;;;;4992705;28;20506;-75
2022/09/27 06:00:53;;;;;;;2.22;0.90;;;11.00;99.90;;;;;;4993783;28;20101;-75
2022/09/27 06:03:19;;;;;;;5.88;1.00;;;11.00;99.90;;;;;;4993395;28;20420;-76
2022/09/27 06:05:44;;;;;;;4.35;0.93;;;11.00;99.90;;;;;;4993813;28;20026;-74
2022/09/27 06:08:11;;;;;;;4.53;1.45;;;11.00;99.90;;;;;;4993845;28;20081;-74
2022/09/27 06:10:38;;;;;;;1.83;0.80;;;10.90;99.90;;;;;;4993229;28;20069;-74
2022/09/27 06:13:07;;;;;;;2.60;0.82;;;10.90;99.90;;;;;;4994992;28;20085;-74
2022/09/27 06:15:34;;;;;;;3.42;0.60;;;10.90;99.90;;;;;;4993092;28;20027;-75
2022/09/27 06:18:09;;;;;;;1.75;0.65;;;10.90;99.90;;;;;;4993653;28;20030;-75
2022/09/27 06:20:35;;;;;;;2.15;0.70;;;10.80;99.90;;;;;;4994238;28;20073;-74
2022/09/27 06:23:09;;;;;;;1.85;0.52;;;10.80;99.90;;;;;;4994531;28;20054;-74
2022/09/27 06:25:35;;;;;;;1.63;0.60;;;10.80;99.90;;;;;;4992871;28;20026;-75
2022/09/27 06:28:02;;;;;;;2.53;0.50;;;10.80;99.90;;;;;;4994239;28;20434;-75
2022/09/27 06:30:28;;;;;;;0.35;0.35;;;10.80;99.90;;;;;;4991999;28;20491;-75
2022/09/27 06:33:01;;;;;;;1.95;0.50;;;10.80;99.90;;;;;;4993324;28;20037;-74
2022/09/27 06:35:28;;;;;;;2.90;0.60;;;10.80;99.90;;;;;;4993983;28;20026;-74
2022/09/27 06:37:54;;;;;;;2.45;0.50;;;10.80;99.90;;;;;;4993157;28;20030;-74
2022/09/27 06:40:21;;;;;;;3.75;0.40;;;10.70;99.90;;;;;;4992790;28;20034;-79
2022/09/27 06:42:48;;;;;;;2.22;0.47;;;10.60;99.90;;;;;;4993057;28;20467;-72
2022/09/27 06:45:14;;;;;;;2.00;0.57;;;10.70;99.90;;;;;;4993073;28;20041;-74
2022/09/27 06:47:39;;;;;;;2.22;0.50;;;10.70;99.90;;;;;;4993763;28;20027;-74
2022/09/27 06:50:05;;;;;;;0.75;0.38;;;10.70;99.90;;;;;;4994269;28;20054;-74
2022/09/27 06:52:33;;;;;;;2.95;0.50;;;10.70;99.90;;;;;;4992376;28;20035;-74
2022/09/27 06:54:59;;;;;;;2.17;0.60;;;10.70;99.90;;;;;;4992853;28;20049;-74
2022/09/27 07:00:23;;;;;;;1.48;0.50;;;10.60;99.90;;;;;;4993759;28;20451;-75
2022/09/27 07:02:49;;;;;;;2.97;0.50;;;10.60;99.90;;;;;;4993027;28;20031;-75
2022/09/27 07:05:16;;;;;;;2.33;0.60;;;10.70;99.90;;;;;;4992817;28;20038;-75
2022/09/27 07:07:46;;;;;;;2.65;0.50;;;10.70;99.90;;;;;;4992134;28;20104;-74
2022/09/27 07:10:11;;;;;;;0.80;0.50;;;10.80;99.90;;;;;;4993925;28;20065;-74
2022/09/27 07:12:37;;;;;;;1.08;0.30;;;10.80;99.90;;;;;;4993314;28;20023;-74
2022/09/27 07:15:04;;;;;;;2.45;0.40;;;10.90;99.90;;;;;;4992577;28;20081;-75
2022/09/27 07:17:29;;;;;;;2.05;0.40;;;10.90;99.90;;;;;;4991945;28;20451;-74
2022/09/27 07:19:55;;;;;;;3.75;0.85;;;10.90;99.90;;;;;;4992454;28;20030;-74
2022/09/27 07:22:21;;;;;;;1.52;0.50;;;10.90;99.90;;;;;;4992578;28;20049;-74
2022/09/27 07:24:47;;;;;;;0.95;0.30;;;11.00;99.90;;;;;;4991868;28;20031;-74
2022/09/27 07:27:14;;;;;;;0.98;0.47;;;10.90;99.90;;;;;;4992353;28;20030;-74
2022/09/27 07:29:40;;;;;;;0.85;0.35;;;11.00;99.90;;;;;;4991713;28;20065;-75
2022/09/27 07:32:06;;;;;;;3.42;0.40;;;11.10;99.90;;;;;;4993478;28;20030;-74
2022/09/27 07:34:33;;;;;;;2.20;0.35;;;11.10;99.90;;;;;;4991744;28;20084;-75
2022/09/27 07:36:59;;;;;;;1.45;0.55;;;11.10;99.90;;;;;;4991819;28;20058;-75
2022/09/27 07:39:25;;;;;;;2.88;0.50;;;11.10;99.90;;;;;;4991532;28;20030;-76
2022/09/27 07:41:51;;;;;;;3.30;0.50;;;11.10;99.90;;;;;;4993532;28;20035;-74
2022/09/27 07:44:17;;;;;;;3.65;0.50;;;11.20;99.90;;;;;;4992117;28;20387;-74
2022/09/27 07:46:42;;;;;;;1.52;0.40;;;11.20;99.90;;;;;;4991706;28;20034;-74
2022/09/27 07:49:08;;;;;;;7.32;2.20;;;11.20;99.90;;;;;;4991804;28;20518;-74
2022/09/27 07:51:34;;;;;;;4.85;1.08;;;11.20;99.90;;;;;;4991613;28;20507;-75
2022/09/27 07:54:02;;;;;;;3.42;0.93;;;11.20;99.90;;;;;;4992192;28;20041;-75
2022/09/27 07:56:28;;;;;;;4.15;1.35;;;11.20;99.90;;;;;;4992723;28;20058;-75
2022/09/27 07:58:54;;;;;;;2.80;1.05;;;11.20;99.90;;;;;;4991803;28;20121;-75
2022/09/27 08:01:20;;;;;;;1.98;0.98;;;11.20;99.90;;;;;;4992000;28;20137;-75
2022/09/27 08:03:46;;;;;;;2.60;0.70;;;11.10;99.90;;;;;;4991475;28;20486;-75
2022/09/27 08:06:12;;;;;;;4.00;0.80;;;11.20;99.90;;;;;;4992030;28;20069;-75
2022/09/27 08:08:38;;;;;;;2.22;0.82;;;11.20;99.90;;;;;;4991111;28;20085;-75
2022/09/27 08:11:15;;;;;;;3.67;0.70;;;11.30;99.90;;;;;;4992212;28;20541;-75
2022/09/27 08:13:42;;;;;;;1.25;0.60;;;11.30;99.90;;;;;;4991389;28;20026;-75
2022/09/27 08:16:08;;;;;;;1.30;0.55;;;11.30;99.90;;;;;;4993172;28;20022;-75
2022/09/27 08:18:33;;;;;;;2.33;0.68;;;11.40;99.90;;;;;;4991337;28;20026;-75
2022/09/27 08:20:59;;;;;;;2.22;0.90;;;11.40;99.90;;;;;;4992742;28;20451;-75
2022/09/27 08:23:26;;;;;;;2.85;1.00;;;11.40;99.90;;;;;;4991935;28;20029;-74
2022/09/27 08:25:59;;;;;;;3.78;0.95;;;11.40;99.90;;;;;;4991829;28;20026;-75
2022/09/27 08:28:26;;;;;;;3.17;0.95;;;11.40;99.90;;;;;;4992941;28;20065;-72
2022/09/27 08:30:52;;;;;;;2.70;1.05;;;11.40;99.90;;;;;;4991935;28;20049;-72
2022/09/27 08:33:18;;;;;;;2.38;0.90;;;11.50;99.90;;;;;;4992936;28;20023;-72
2022/09/27 08:35:43;;;;;;;3.58;1.45;;;11.50;99.90;;;;;;4991055;28;20033;-75
2022/09/27 08:38:10;;;;;;;1.00;0.77;;;11.60;99.90;;;;;;4991658;28;20173;-75
2022/09/27 08:41:20;;;;;;;0.90;0.75;;;11.60;99.90;;;;;;4990796;28;20038;-75
2022/09/27 08:44:32;;;;;;;2.03;0.90;;;11.60;99.90;;;;;;4935161;29;20122;-75
2022/09/27 08:47:14;;;;;;;2.55;1.23;;;11.60;99.90;;;;;;4951781;29;20031;-74
2022/09/27 08:50:21;;;;;;;4.68;0.80;;;11.50;99.90;;;;;;4970566;28;20062;-75
2022/09/27 08:52:56;;;;;;;2.38;1.15;;;11.50;99.90;;;;;;4991370;28;20053;-75
2022/09/27 08:55:24;;;;;;;3.03;0.80;;;11.50;99.90;;;;;;4995245;28;20038;-74
2022/09/27 08:57:56;;;;;;;4.78;0.82;;;11.60;99.90;;;;;;4995556;28;20464;-75
2022/09/27 09:00:22;;;;;;;1.95;0.85;;;11.70;99.90;;;;;;4995074;28;20048;-74
2022/09/27 09:02:48;;;;;;;4.10;0.90;;;11.80;99.90;;;;;;4994161;28;20117;-75
2022/09/27 09:05:26;;;;;;;2.08;0.90;;;11.90;99.90;;;;;;4995228;28;20061;-74
2022/09/27 09:08:13;;;;;;;4.32;1.00;;;12.00;99.90;;;;;;4994581;28;20058;-75
2022/09/27 09:13:56;;;;;;;2.22;1.15;;;11.90;99.90;;;;;;4995658;28;20532;-75
2022/09/27 09:16:47;;;;;;;3.95;1.27;;;11.90;99.90;;;;;;4996257;28;20065;-74
2022/09/27 09:19:28;;;;;;;4.53;1.05;;;12.00;99.90;;;;;;4994652;28;20030;-75
2022/09/27 09:22:12;;;;;;;5.25;1.10;;;12.10;99.90;;;;;;4978020;28;20034;-74
2022/09/27 09:24:46;;;;;;;3.45;1.45;;;12.20;99.90;;;;;;4994170;28;20026;-74
2022/09/27 09:27:32;;;;;;;6.57;1.30;;;12.30;99.90;;;;;;4978431;28;20030;-74
2022/09/27 09:30:09;;;;;;;6.18;1.60;;;12.40;99.90;;;;;;4977177;28;20042;-75
2022/09/27 09:33:04;;;;;;;2.25;1.20;;;12.40;99.90;;;;;;4994121;28;20062;-75
2022/09/27 09:35:36;;;;;;;4.80;1.20;;;12.40;99.90;;;;;;4994637;28;20026;-75
2022/09/27 09:38:09;;;;;;;2.17;1.20;;;12.30;99.90;;;;;;4978399;28;20026;-74
2022/09/27 09:40:47;;;;;;;6.25;1.63;;;12.40;99.90;;;;;;4995105;28;20030;-75
2022/09/27 09:43:27;;;;;;;3.78;1.20;;;12.40;99.90;;;;;;4978116;28;20031;-74
2022/09/27 09:46:08;;;;;;;3.95;1.73;;;12.40;99.90;;;;;;4995049;28;20030;-74
2022/09/27 09:48:45;;;;;;;6.40;1.40;;;12.30;99.90;;;;;;4977338;28;20097;-75
2022/09/27 09:51:25;;;;;;;6.28;1.90;;;12.20;99.90;;;;;;4995458;28;20081;-74
2022/09/27 09:53:59;;;;;;;4.32;2.05;;;12.10;99.90;;;;;;4994941;28;20862;-74
2022/09/27 09:56:28;;;;;;;4.20;1.55;;;11.90;99.90;;;;;;4994039;28;20030;-74
2022/09/27 09:59:01;;;;;;;8.13;2.00;;;11.80;99.90;;;;;;4992874;28;20030;-75
2022/09/27 10:01:48;;;;;;;3.40;1.27;;;11.70;99.90;;;;;;4993856;28;20034;-75
2022/09/27 10:04:31;;;;;;;6.65;1.50;;;11.60;99.90;;;;;;4994077;28;20069;-75
2022/09/27 10:06:59;;;;;;;3.33;1.27;;;11.50;99.90;;;;;;4993596;28;20027;-74
2022/09/27 10:09:27;;;;;;;6.50;2.08;;;11.40;99.90;;;;;;4993862;28;20031;-74
2022/09/27 10:11:52;;;;;;;4.10;2.05;;;11.50;99.90;;;;;;4993125;28;20304;-74
2022/09/27 10:14:20;;;;;;;2.25;1.42;;;11.50;99.90;;;;;;4994948;28;20105;-74
2022/09/27 10:16:57;;;;;;;7.18;2.10;;;11.60;99.90;;;;;;4994420;28;20038;-74
2022/09/27 10:19:34;;;;;;;5.28;1.83;;;11.70;99.90;;;;;;4993652;28;20096;-75
2022/09/27 10:22:27;;;;;;;4.40;1.98;;;11.90;99.90;;;;;;4993737;28;20109;-75
2022/09/27 10:24:58;;;;;;;3.95;1.45;;;11.90;99.90;;;;;;4993006;28;20034;-74
2022/09/27 10:27:25;;;;;;;5.60;1.67;;;11.90;99.90;;;;;;4993371;28;20494;-74
2022/09/27 10:29:58;;;;;;;3.35;1.25;;;11.70;99.90;;;;;;4993764;28;20066;-74
2022/09/27 10:32:34;;;;;;;3.50;1.05;;;11.70;99.90;;;;;;4993357;28;20096;-75
2022/09/27 10:35:29;;;;;;;4.45;1.00;;;11.60;99.90;;;;;;4993602;28;20034;-74
2022/09/27 10:38:25;;;;;;;3.30;0.63;;;11.40;99.90;;;;;;4994024;28;20038;-74
2022/09/27 10:40:54;;;;;;;1.30;0.57;;;11.30;99.90;;;;;;4968089;28;20038;-74
2022/09/27 10:43:35;;;;;;;1.35;0.90;;;11.20;99.90;;;;;;4993228;28;20034;-74
2022/09/27 10:46:12;;;;;;;3.92;0.45;;;11.10;99.90;;;;;;4994425;28;20027;-75
2022/09/27 10:48:40;;;;;;;0.55;0.35;;;10.90;99.90;;;;;;4976308;28;20022;-76
2022/09/27 10:51:28;;;;;;;2.50;0.47;;;10.80;99.90;;;;;;4976929;28;20092;-75
2022/09/27 10:53:59;;;;;;;0.80;0.45;;;10.60;99.90;;;;;;4992417;28;20034;-74
2022/09/27 10:56:31;;;;;;;0.65;0.45;;;10.60;99.90;;;;;;4993010;28;20085;-74
2022/09/27 10:58:58;;;;;;;1.33;0.73;;;10.70;99.90;;;;;;4992247;28;20117;-74
2022/09/27 11:01:26;;;;;;;1.20;0.30;;;10.80;99.90;;;;;;4993968;28;20031;-74
2022/09/27 11:03:57;;;;;;;0.20;0.10;;;10.80;99.90;;;;;;4976413;28;20051;-75
2022/09/27 11:06:22;;;;;;;1.45;0.30;;;10.70;99.90;;;;;;4992910;28;20030;-75
2022/09/27 11:08:53;;;;;;;0.85;0.30;;;10.60;99.90;;;;;;4993427;28;20053;-74
2022/09/27 11:11:27;;;;;;;0.63;0.25;;;10.60;99.90;;;;;;4992818;28;20034;-74
2022/09/27 11:14:20;;;;;;;4.20;0.30;;;10.70;99.90;;;;;;4991793;28;20057;-74
2022/09/27 11:16:55;;;;;;;0.20;0.20;;;10.80;99.90;;;;;;4993226;28;20035;-75
2022/09/27 11:19:23;;;;;;;2.20;0.20;;;10.80;99.90;;;;;;4976220;28;20109;-74
2022/09/27 11:22:16;;;;;;;0.75;0.20;;;10.80;99.90;;;;;;4975637;28;20049;-74
2022/09/27 11:25:15;;;;;;;0.63;0.30;;;10.80;99.90;;;;;;4992035;28;20403;-75
2022/09/27 11:27:47;;;;;;;1.55;0.20;;;10.70;99.90;;;;;;4991840;28;20042;-75
2022/09/27 11:30:18;;;;;;;0.60;0.30;;;10.60;99.90;;;;;;4992549;28;20097;-75
2022/09/27 11:32:53;;;;;;;1.80;0.50;;;10.50;99.90;;;;;;4991827;28;20031;-74
2022/09/27 11:35:52;;;;;;;1.27;0.32;;;10.50;99.90;;;;;;4976129;28;20035;-74
2022/09/27 11:38:55;;;;;;;1.80;0.32;;;10.60;99.90;;;;;;4993493;28;20030;-74
2022/09/27 11:41:32;;;;;;;1.75;0.40;;;10.60;99.90;;;;;;4992409;28;20027;-74
2022/09/27 11:44:10;;;;;;;0.38;0.25;;;10.50;99.90;;;;;;4993050;28;20376;-75
2022/09/27 11:46:38;;;;;;;0.80;0.40;;;10.50;99.90;;;;;;4975954;28;20088;-74
2022/09/27 11:49:22;;;;;;;1.17;0.30;;;10.40;99.90;;;;;;4993077;28;20051;-75
2022/09/27 11:52:16;;;;;;;1.15;0.30;;;10.60;99.90;;;;;;4975512;28;20027;-75
2022/09/27 11:54:50;;;;;;;0.20;0.20;;;11.00;99.90;;;;;;4992896;28;20026;-75
2022/09/27 11:57:25;;;;;;;0.50;0.20;;;11.10;99.90;;;;;;4975991;28;20064;-74
2022/09/27 12:00:09;;;;;;;2.88;0.75;;;11.30;99.90;;;;;;4974844;28;20034;-74
2022/09/27 12:03:05;;;;;;;0.77;0.32;;;11.60;99.90;;;;;;4992219;28;20126;-74
2022/09/27 12:05:46;;;;;;;3.50;0.82;;;11.90;99.90;;;;;;4991930;28;20022;-74
2022/09/27 12:08:35;;;;;;;1.93;0.60;;;12.10;99.90;;;;;;4975907;28;20094;-74
2022/09/27 12:11:17;;;;;;;1.30;0.30;;;12.40;99.90;;;;;;4975293;28;20099;-75
2022/09/27 12:13:47;;;;;;;2.40;0.50;;;12.60;99.90;;;;;;4991551;28;20062;-75
2022/09/27 12:16:16;;;;;;;3.55;0.43;;;12.80;99.90;;;;;;4991602;28;20031;-74
2022/09/27 12:18:43;;;;;;;2.35;0.50;;;13.00;99.90;;;;;;4991027;28;20054;-75
2022/09/27 12:21:11;;;;;;;1.63;0.40;;;13.30;99.90;;;;;;4992721;28;20034;-74
2022/09/27 12:23:50;;;;;;;1.60;0.40;;;13.60;99.90;;;;;;4991850;28;20258;-75
2022/09/27 12:26:28;;;;;;;1.90;0.60;;;13.90;99.90;;;;;;4991993;28;20096;-74
2022/09/27 12:29:14;;;;;;;3.00;0.60;;;14.20;99.90;;;;;;4994538;28;20030;-74
2022/09/27 12:32:17;;;;;;;0.55;0.20;;;14.40;99.90;;;;;;4995577;28;20038;-75
2022/09/27 12:34:54;;;;;;;2.45;0.40;;;14.40;99.90;;;;;;4995009;28;20463;-75
2022/09/27 12:37:37;;;;;;;1.90;0.55;;;14.40;99.90;;;;;;4996825;28;20105;-74
2022/09/27 12:40:20;;;;;;;1.58;0.43;;;14.60;99.90;;;;;;4996169;28;20035;-74
2022/09/27 12:42:54;;;;;;;1.65;0.50;;;14.80;99.90;;;;;;4995062;28;20039;-75
2022/09/27 12:45:47;;;;;;;2.08;0.22;;;14.70;99.90;;;;;;4995396;28;20031;-75
2022/09/27 12:48:27;;;;;;;1.48;0.30;;;14.40;99.90;;;;;;4965711;28;20371;-75
2022/09/27 12:51:02;;;;;;;4.75;0.47;;;14.00;99.90;;;;;;4996069;28;20034;-74
2022/09/27 12:53:59;;;;;;;1.23;0.52;;;13.90;99.90;;;;;;4995405;28;20065;-74
2022/09/27 12:56:35;;;;;;;1.08;0.38;;;13.70;99.90;;;;;;4995441;28;20077;-74
2022/09/27 12:59:10;;;;;;;1.80;0.52;;;13.40;99.90;;;;;;4996240;28;20077;-75
2022/09/27 13:02:14;;;;;;;1.70;0.52;;;13.30;99.90;;;;;;4995192;28;20045;-74
2022/09/27 13:04:42;;;;;;;1.90;0.50;;;13.20;99.90;;;;;;4996297;28;20026;-74
2022/09/27 13:07:26;;;;;;;1.55;0.50;;;13.20;99.90;;;;;;4978517;28;20026;-74
2022/09/27 13:10:23;;;;;;;2.15;0.60;;;13.10;99.90;;;;;;4994599;28;20026;-75
2022/09/27 13:12:53;;;;;;;0.68;0.35;;;13.10;99.90;;;;;;4975120;28;20125;-75
2022/09/27 13:15:33;;;;;;;0.47;0.30;;;12.90;99.90;;;;;;4978850;28;20038;-75
2022/09/27 13:18:02;;;;;;;1.23;0.28;;;12.90;99.90;;;;;;4994291;28;20030;-75
2022/09/27 13:20:41;;;;;;;2.70;0.40;;;13.00;99.90;;;;;;4994626;28;20424;-73
2022/09/27 13:23:19;;;;;;;0.50;0.20;;;13.00;99.90;;;;;;4994335;28;20080;-73
2022/09/27 13:25:59;;;;;;;3.60;0.47;;;12.90;99.90;;;;;;4977615;28;20030;-77